sensor_id;sensor_type;location;lat;lon;timestamp;P1;durP1;ratioP1;P2;durP2;ratioP2
5458;SDS011;2752;49.992;8.422;2022-12-18T00:00:07;37.37;;;14.10;;
5458;SDS011;2752;49.992;8.422;2022-12-18T00:02:34;34.07;;;11.73;;
5458;SDS011;2752;49.992;8.422;2022-12-18T00:05:01;33.07;;;12.00;;
5458;SDS011;2752;49.992;8.422;2022-12-18T00:07:28;35.63;;;13.33;;
5458;SDS011;2752;49.992;8.422;2022-12-18T00:09:56;33.37;;;11.00;;
5458;SDS011;2752;49.992;8.422;2022-12-18T00:12:23;32.30;;;13.20;;
5458;SDS011;2752;49.992;8.422;2022-12-18T00:14:49;25.50;;;10.23;;
5458;SDS011;2752;49.992;8.422;2022-12-18T00:17:16;34.90;;;12.77;;
5458;SDS011;2752;49.992;8.422;2022-12-18T00:19:43;33.63;;;12.20;;
5458;SDS011;2752;49.992;8.422;2022-12-18T00:22:10;27.57;;;10.27;;
5458;SDS011;2752;49.992;8.422;2022-12-18T00:24:36;36.00;;;10.40;;
5458;SDS011;2752;49.992;8.422;2022-12-18T00:27:04;33.03;;;13.63;;
5458;SDS011;2752;49.992;8.422;2022-12-18T00:29:31;33.90;;;10.73;;
5458;SDS011;2752;49.992;8.422;2022-12-18T00:31:58;25.43;;;10.13;;
5458;SDS011;2752;49.992;8.422;2022-12-18T00:34:24;25.50;;;9.67;;
5458;SDS011;2752;49.992;8.422;2022-12-18T00:36:51;37.33;;;12.60;;
5458;SDS011;2752;49.992;8.422;2022-12-18T00:39:18;35.13;;;12.17;;
5458;SDS011;2752;49.992;8.422;2022-12-18T00:41:44;25.27;;;9.77;;
5458;SDS011;2752;49.992;8.422;2022-12-18T00:44:30;31.00;;;11.33;;
5458;SDS011;2752;49.992;8.422;2022-12-18T00:46:57;34.03;;;10.20;;
5458;SDS011;2752;49.992;8.422;2022-12-18T00:49:23;22.27;;;9.17;;
5458;SDS011;2752;49.992;8.422;2022-12-18T00:51:50;31.37;;;11.17;;
5458;SDS011;2752;49.992;8.422;2022-12-18T00:54:17;45.10;;;11.60;;
5458;SDS011;2752;49.992;8.422;2022-12-18T00:56:44;46.57;;;11.87;;
5458;SDS011;2752;49.992;8.422;2022-12-18T00:59:10;31.90;;;12.03;;
5458;SDS011;2752;49.992;8.422;2022-12-18T01:01:38;37.87;;;11.03;;
5458;SDS011;2752;49.992;8.422;2022-12-18T01:04:05;28.27;;;10.70;;
5458;SDS011;2752;49.992;8.422;2022-12-18T01:06:32;23.57;;;9.30;;
5458;SDS011;2752;49.992;8.422;2022-12-18T01:08:58;36.83;;;11.30;;
5458;SDS011;2752;49.992;8.422;2022-12-18T01:11:25;33.70;;;10.50;;
5458;SDS011;2752;49.992;8.422;2022-12-18T01:13:52;31.23;;;9.50;;
5458;SDS011;2752;49.992;8.422;2022-12-18T01:16:20;31.37;;;10.10;;
5458;SDS011;2752;49.992;8.422;2022-12-18T01:18:49;25.70;;;10.73;;
5458;SDS011;2752;49.992;8.422;2022-12-18T01:21:18;16.80;;;8.50;;
5458;SDS011;2752;49.992;8.422;2022-12-18T01:23:45;23.07;;;9.30;;
5458;SDS011;2752;49.992;8.422;2022-12-18T01:26:13;25.93;;;10.33;;
5458;SDS011;2752;49.992;8.422;2022-12-18T01:28:41;35.57;;;9.93;;
5458;SDS011;2752;49.992;8.422;2022-12-18T01:31:10;29.13;;;10.27;;
5458;SDS011;2752;49.992;8.422;2022-12-18T01:33:37;29.40;;;9.83;;
5458;SDS011;2752;49.992;8.422;2022-12-18T01:36:06;33.70;;;12.13;;
5458;SDS011;2752;49.992;8.422;2022-12-18T01:38:33;29.60;;;9.40;;
5458;SDS011;2752;49.992;8.422;2022-12-18T01:41:00;24.50;;;8.67;;
5458;SDS011;2752;49.992;8.422;2022-12-18T01:43:47;25.60;;;10.80;;
5458;SDS011;2752;49.992;8.422;2022-12-18T01:46:16;25.63;;;9.90;;
5458;SDS011;2752;49.992;8.422;2022-12-18T01:48:44;18.40;;;7.50;;
5458;SDS011;2752;49.992;8.422;2022-12-18T01:51:14;28.73;;;10.50;;
5458;SDS011;2752;49.992;8.422;2022-12-18T01:53:41;25.33;;;9.30;;
5458;SDS011;2752;49.992;8.422;2022-12-18T01:56:11;21.83;;;9.57;;
5458;SDS011;2752;49.992;8.422;2022-12-18T01:58:41;27.03;;;9.90;;
5458;SDS011;2752;49.992;8.422;2022-12-18T02:01:14;26.47;;;8.70;;
5458;SDS011;2752;49.992;8.422;2022-12-18T02:03:42;29.27;;;10.70;;
5458;SDS011;2752;49.992;8.422;2022-12-18T02:06:12;28.20;;;10.30;;
5458;SDS011;2752;49.992;8.422;2022-12-18T02:08:45;33.03;;;10.10;;
5458;SDS011;2752;49.992;8.422;2022-12-18T02:11:23;38.40;;;8.90;;
5458;SDS011;2752;49.992;8.422;2022-12-18T02:13:59;19.13;;;8.27;;
5458;SDS011;2752;49.992;8.422;2022-12-18T02:16:38;14.80;;;7.13;;
5458;SDS011;2752;49.992;8.422;2022-12-18T02:19:09;32.67;;;8.80;;
5458;SDS011;2752;49.992;8.422;2022-12-18T02:21:51;18.40;;;7.40;;
5458;SDS011;2752;49.992;8.422;2022-12-18T02:24:27;28.00;;;9.07;;
5458;SDS011;2752;49.992;8.422;2022-12-18T02:27:02;21.27;;;7.87;;
5458;SDS011;2752;49.992;8.422;2022-12-18T02:29:33;19.50;;;9.13;;
5458;SDS011;2752;49.992;8.422;2022-12-18T02:32:03;23.73;;;7.83;;
5458;SDS011;2752;49.992;8.422;2022-12-18T02:34:34;19.93;;;8.30;;
5458;SDS011;2752;49.992;8.422;2022-12-18T02:37:04;23.37;;;8.40;;
5458;SDS011;2752;49.992;8.422;2022-12-18T02:39:35;22.53;;;8.33;;
5458;SDS011;2752;49.992;8.422;2022-12-18T02:42:06;26.07;;;10.33;;
5458;SDS011;2752;49.992;8.422;2022-12-18T02:44:33;14.97;;;6.80;;
5458;SDS011;2752;49.992;8.422;2022-12-18T02:47:00;17.20;;;8.47;;
5458;SDS011;2752;49.992;8.422;2022-12-18T02:49:30;17.37;;;8.33;;
5458;SDS011;2752;49.992;8.422;2022-12-18T02:52:04;20.30;;;8.03;;
5458;SDS011;2752;49.992;8.422;2022-12-18T02:54:42;23.00;;;9.33;;
5458;SDS011;2752;49.992;8.422;2022-12-18T02:57:22;19.60;;;7.30;;
5458;SDS011;2752;49.992;8.422;2022-12-18T02:59:56;19.63;;;6.47;;
5458;SDS011;2752;49.992;8.422;2022-12-18T03:02:29;23.33;;;8.23;;
5458;SDS011;2752;49.992;8.422;2022-12-18T03:05:02;18.50;;;8.20;;
5458;SDS011;2752;49.992;8.422;2022-12-18T03:07:37;20.77;;;9.93;;
5458;SDS011;2752;49.992;8.422;2022-12-18T03:10:06;8.17;;;4.23;;
5458;SDS011;2752;49.992;8.422;2022-12-18T03:12:40;26.03;;;8.70;;
5458;SDS011;2752;49.992;8.422;2022-12-18T03:15:11;25.87;;;10.00;;
5458;SDS011;2752;49.992;8.422;2022-12-18T03:17:43;17.87;;;7.90;;
5458;SDS011;2752;49.992;8.422;2022-12-18T03:20:14;16.97;;;7.70;;
5458;SDS011;2752;49.992;8.422;2022-12-18T03:22:46;20.93;;;6.70;;
5458;SDS011;2752;49.992;8.422;2022-12-18T03:25:17;18.83;;;7.60;;
5458;SDS011;2752;49.992;8.422;2022-12-18T03:27:46;24.73;;;7.13;;
5458;SDS011;2752;49.992;8.422;2022-12-18T03:30:17;17.47;;;7.23;;
5458;SDS011;2752;49.992;8.422;2022-12-18T03:32:44;19.93;;;8.07;;
5458;SDS011;2752;49.992;8.422;2022-12-18T03:35:15;23.10;;;8.80;;
5458;SDS011;2752;49.992;8.422;2022-12-18T03:37:45;21.83;;;9.60;;
5458;SDS011;2752;49.992;8.422;2022-12-18T03:40:12;18.20;;;8.33;;
5458;SDS011;2752;49.992;8.422;2022-12-18T03:42:41;17.83;;;7.03;;
5458;SDS011;2752;49.992;8.422;2022-12-18T03:45:16;25.23;;;10.03;;
5458;SDS011;2752;49.992;8.422;2022-12-18T03:47:52;30.13;;;10.83;;
5458;SDS011;2752;49.992;8.422;2022-12-18T03:50:26;17.17;;;7.00;;
5458;SDS011;2752;49.992;8.422;2022-12-18T03:53:02;19.77;;;8.93;;
5458;SDS011;2752;49.992;8.422;2022-12-18T03:55:35;22.00;;;9.30;;
5458;SDS011;2752;49.992;8.422;2022-12-18T03:58:03;17.97;;;6.90;;
5458;SDS011;2752;49.992;8.422;2022-12-18T04:00:34;19.93;;;7.77;;
5458;SDS011;2752;49.992;8.422;2022-12-18T04:03:01;19.43;;;8.80;;
5458;SDS011;2752;49.992;8.422;2022-12-18T04:05:29;15.67;;;7.90;;
5458;SDS011;2752;49.992;8.422;2022-12-18T04:07:58;26.90;;;9.07;;
5458;SDS011;2752;49.992;8.422;2022-12-18T04:10:25;21.17;;;8.97;;
5458;SDS011;2752;49.992;8.422;2022-12-18T04:12:52;24.40;;;9.93;;
5458;SDS011;2752;49.992;8.422;2022-12-18T04:15:22;15.57;;;8.67;;
5458;SDS011;2752;49.992;8.422;2022-12-18T04:17:50;18.97;;;8.47;;
5458;SDS011;2752;49.992;8.422;2022-12-18T04:20:17;9.47;;;5.53;;
5458;SDS011;2752;49.992;8.422;2022-12-18T04:22:44;12.53;;;5.70;;
5458;SDS011;2752;49.992;8.422;2022-12-18T04:25:11;25.27;;;9.90;;
5458;SDS011;2752;49.992;8.422;2022-12-18T04:27:38;25.07;;;10.27;;
5458;SDS011;2752;49.992;8.422;2022-12-18T04:30:05;21.57;;;9.23;;
5458;SDS011;2752;49.992;8.422;2022-12-18T04:32:33;25.30;;;8.93;;
5458;SDS011;2752;49.992;8.422;2022-12-18T04:35:01;26.03;;;9.90;;
5458;SDS011;2752;49.992;8.422;2022-12-18T04:37:29;27.17;;;8.47;;
5458;SDS011;2752;49.992;8.422;2022-12-18T04:39:55;25.30;;;9.80;;
5458;SDS011;2752;49.992;8.422;2022-12-18T04:42:22;33.20;;;10.73;;
5458;SDS011;2752;49.992;8.422;2022-12-18T04:44:49;23.50;;;7.53;;
5458;SDS011;2752;49.992;8.422;2022-12-18T04:47:15;28.00;;;9.80;;
5458;SDS011;2752;49.992;8.422;2022-12-18T04:49:42;19.90;;;8.83;;
5458;SDS011;2752;49.992;8.422;2022-12-18T04:52:10;15.67;;;7.07;;
5458;SDS011;2752;49.992;8.422;2022-12-18T04:54:37;26.63;;;8.60;;
5458;SDS011;2752;49.992;8.422;2022-12-18T04:57:03;23.33;;;8.70;;
5458;SDS011;2752;49.992;8.422;2022-12-18T04:59:30;20.60;;;9.73;;
5458;SDS011;2752;49.992;8.422;2022-12-18T05:01:56;24.47;;;10.77;;
5458;SDS011;2752;49.992;8.422;2022-12-18T05:04:23;14.17;;;6.00;;
5458;SDS011;2752;49.992;8.422;2022-12-18T05:06:50;21.77;;;10.20;;
5458;SDS011;2752;49.992;8.422;2022-12-18T05:09:18;20.00;;;8.30;;
5458;SDS011;2752;49.992;8.422;2022-12-18T05:11:44;20.73;;;10.10;;
5458;SDS011;2752;49.992;8.422;2022-12-18T05:14:11;24.23;;;8.50;;
5458;SDS011;2752;49.992;8.422;2022-12-18T05:16:38;20.10;;;9.23;;
5458;SDS011;2752;49.992;8.422;2022-12-18T05:19:05;28.70;;;11.30;;
5458;SDS011;2752;49.992;8.422;2022-12-18T05:21:31;22.10;;;9.57;;
5458;SDS011;2752;49.992;8.422;2022-12-18T05:23:58;17.53;;;10.00;;
5458;SDS011;2752;49.992;8.422;2022-12-18T05:26:26;21.77;;;10.10;;
5458;SDS011;2752;49.992;8.422;2022-12-18T05:28:52;22.53;;;9.53;;
5458;SDS011;2752;49.992;8.422;2022-12-18T05:31:19;20.93;;;8.80;;
5458;SDS011;2752;49.992;8.422;2022-12-18T05:33:46;21.90;;;9.20;;
5458;SDS011;2752;49.992;8.422;2022-12-18T05:36:12;23.37;;;8.53;;
5458;SDS011;2752;49.992;8.422;2022-12-18T05:38:39;24.70;;;9.27;;
5458;SDS011;2752;49.992;8.422;2022-12-18T05:41:07;24.53;;;10.93;;
5458;SDS011;2752;49.992;8.422;2022-12-18T05:43:36;24.50;;;8.63;;
5458;SDS011;2752;49.992;8.422;2022-12-18T05:46:04;26.90;;;9.20;;
5458;SDS011;2752;49.992;8.422;2022-12-18T05:48:32;24.37;;;9.00;;
5458;SDS011;2752;49.992;8.422;2022-12-18T05:51:03;23.20;;;9.63;;
5458;SDS011;2752;49.992;8.422;2022-12-18T05:53:31;25.47;;;9.97;;
5458;SDS011;2752;49.992;8.422;2022-12-18T05:55:59;19.07;;;8.00;;
5458;SDS011;2752;49.992;8.422;2022-12-18T05:58:27;22.83;;;9.13;;
5458;SDS011;2752;49.992;8.422;2022-12-18T06:00:55;18.67;;;9.90;;
5458;SDS011;2752;49.992;8.422;2022-12-18T06:03:22;34.07;;;9.97;;
5458;SDS011;2752;49.992;8.422;2022-12-18T06:05:49;22.70;;;8.93;;
5458;SDS011;2752;49.992;8.422;2022-12-18T06:08:16;24.17;;;10.93;;
5458;SDS011;2752;49.992;8.422;2022-12-18T06:10:49;24.97;;;9.80;;
5458;SDS011;2752;49.992;8.422;2022-12-18T06:13:17;21.80;;;9.17;;
5458;SDS011;2752;49.992;8.422;2022-12-18T06:15:45;29.83;;;9.77;;
5458;SDS011;2752;49.992;8.422;2022-12-18T06:18:13;25.30;;;11.57;;
5458;SDS011;2752;49.992;8.422;2022-12-18T06:20:40;28.17;;;12.40;;
5458;SDS011;2752;49.992;8.422;2022-12-18T06:23:07;23.50;;;10.30;;
5458;SDS011;2752;49.992;8.422;2022-12-18T06:25:36;26.30;;;9.50;;
5458;SDS011;2752;49.992;8.422;2022-12-18T06:28:04;22.47;;;9.30;;
5458;SDS011;2752;49.992;8.422;2022-12-18T06:30:31;22.80;;;10.87;;
5458;SDS011;2752;49.992;8.422;2022-12-18T06:32:57;37.20;;;12.07;;
5458;SDS011;2752;49.992;8.422;2022-12-18T06:35:25;23.23;;;10.60;;
5458;SDS011;2752;49.992;8.422;2022-12-18T06:37:52;30.30;;;10.90;;
5458;SDS011;2752;49.992;8.422;2022-12-18T06:40:18;34.57;;;11.77;;
5458;SDS011;2752;49.992;8.422;2022-12-18T06:42:45;22.00;;;9.90;;
5458;SDS011;2752;49.992;8.422;2022-12-18T06:45:12;30.13;;;10.37;;
5458;SDS011;2752;49.992;8.422;2022-12-18T06:47:39;26.13;;;11.07;;
5458;SDS011;2752;49.992;8.422;2022-12-18T06:50:06;32.17;;;11.80;;
5458;SDS011;2752;49.992;8.422;2022-12-18T06:52:34;22.20;;;10.17;;
5458;SDS011;2752;49.992;8.422;2022-12-18T06:55:01;25.33;;;10.23;;
5458;SDS011;2752;49.992;8.422;2022-12-18T06:57:28;25.87;;;10.17;;
5458;SDS011;2752;49.992;8.422;2022-12-18T06:59:55;21.07;;;9.57;;
5458;SDS011;2752;49.992;8.422;2022-12-18T07:02:22;21.00;;;11.03;;
5458;SDS011;2752;49.992;8.422;2022-12-18T07:04:48;25.93;;;10.83;;
5458;SDS011;2752;49.992;8.422;2022-12-18T07:07:15;27.90;;;9.87;;
5458;SDS011;2752;49.992;8.422;2022-12-18T07:09:43;22.07;;;9.03;;
5458;SDS011;2752;49.992;8.422;2022-12-18T07:12:09;34.90;;;11.87;;
5458;SDS011;2752;49.992;8.422;2022-12-18T07:14:36;20.10;;;9.03;;
5458;SDS011;2752;49.992;8.422;2022-12-18T07:17:03;26.37;;;10.47;;
5458;SDS011;2752;49.992;8.422;2022-12-18T07:19:29;22.03;;;10.30;;
5458;SDS011;2752;49.992;8.422;2022-12-18T07:21:56;29.93;;;11.40;;
5458;SDS011;2752;49.992;8.422;2022-12-18T07:24:23;29.87;;;11.20;;
5458;SDS011;2752;49.992;8.422;2022-12-18T07:26:51;22.50;;;8.70;;
5458;SDS011;2752;49.992;8.422;2022-12-18T07:29:17;20.83;;;10.10;;
5458;SDS011;2752;49.992;8.422;2022-12-18T07:31:44;24.47;;;10.37;;
5458;SDS011;2752;49.992;8.422;2022-12-18T07:34:11;34.00;;;11.23;;
5458;SDS011;2752;49.992;8.422;2022-12-18T07:36:38;25.80;;;11.10;;
5458;SDS011;2752;49.992;8.422;2022-12-18T07:39:05;29.60;;;12.30;;
5458;SDS011;2752;49.992;8.422;2022-12-18T07:41:32;28.37;;;10.30;;
5458;SDS011;2752;49.992;8.422;2022-12-18T07:44:00;32.27;;;11.30;;
5458;SDS011;2752;49.992;8.422;2022-12-18T07:46:27;30.90;;;12.17;;
5458;SDS011;2752;49.992;8.422;2022-12-18T07:48:53;26.60;;;11.60;;
5458;SDS011;2752;49.992;8.422;2022-12-18T07:51:20;26.77;;;12.67;;
5458;SDS011;2752;49.992;8.422;2022-12-18T07:53:47;29.37;;;11.43;;
5458;SDS011;2752;49.992;8.422;2022-12-18T07:56:13;27.30;;;10.77;;
5458;SDS011;2752;49.992;8.422;2022-12-18T07:58:40;31.40;;;11.33;;
5458;SDS011;2752;49.992;8.422;2022-12-18T08:01:09;30.37;;;11.80;;
5458;SDS011;2752;49.992;8.422;2022-12-18T08:03:37;20.33;;;9.53;;
5458;SDS011;2752;49.992;8.422;2022-12-18T08:06:05;34.77;;;12.60;;
5458;SDS011;2752;49.992;8.422;2022-12-18T08:08:34;29.33;;;13.13;;
5458;SDS011;2752;49.992;8.422;2022-12-18T08:11:01;24.63;;;11.57;;
5458;SDS011;2752;49.992;8.422;2022-12-18T08:13:28;30.70;;;14.10;;
5458;SDS011;2752;49.992;8.422;2022-12-18T08:15:55;33.67;;;13.37;;
5458;SDS011;2752;49.992;8.422;2022-12-18T08:18:24;30.20;;;12.50;;
5458;SDS011;2752;49.992;8.422;2022-12-18T08:20:51;35.70;;;14.70;;
5458;SDS011;2752;49.992;8.422;2022-12-18T08:23:18;28.27;;;12.90;;
5458;SDS011;2752;49.992;8.422;2022-12-18T08:25:44;40.27;;;14.53;;
5458;SDS011;2752;49.992;8.422;2022-12-18T08:28:11;36.07;;;13.10;;
5458;SDS011;2752;49.992;8.422;2022-12-18T08:30:38;29.07;;;13.33;;
5458;SDS011;2752;49.992;8.422;2022-12-18T08:33:05;29.33;;;13.63;;
5458;SDS011;2752;49.992;8.422;2022-12-18T08:35:35;33.80;;;12.97;;
5458;SDS011;2752;49.992;8.422;2022-12-18T08:38:02;25.20;;;12.67;;
5458;SDS011;2752;49.992;8.422;2022-12-18T08:40:29;28.60;;;11.67;;
5458;SDS011;2752;49.992;8.422;2022-12-18T08:42:56;34.47;;;13.77;;
5458;SDS011;2752;49.992;8.422;2022-12-18T08:45:40;41.07;;;14.10;;
5458;SDS011;2752;49.992;8.422;2022-12-18T08:48:07;28.60;;;11.53;;
5458;SDS011;2752;49.992;8.422;2022-12-18T08:50:33;35.47;;;13.50;;
5458;SDS011;2752;49.992;8.422;2022-12-18T08:53:01;32.37;;;14.43;;
5458;SDS011;2752;49.992;8.422;2022-12-18T08:55:28;23.93;;;11.90;;
5458;SDS011;2752;49.992;8.422;2022-12-18T08:57:55;34.27;;;13.77;;
5458;SDS011;2752;49.992;8.422;2022-12-18T09:00:21;37.30;;;15.30;;
5458;SDS011;2752;49.992;8.422;2022-12-18T09:02:48;28.10;;;13.47;;
5458;SDS011;2752;49.992;8.422;2022-12-18T09:05:15;35.37;;;13.23;;
5458;SDS011;2752;49.992;8.422;2022-12-18T09:07:43;30.67;;;14.20;;
5458;SDS011;2752;49.992;8.422;2022-12-18T09:10:09;31.43;;;14.93;;
5458;SDS011;2752;49.992;8.422;2022-12-18T09:12:36;34.53;;;13.67;;
5458;SDS011;2752;49.992;8.422;2022-12-18T09:15:03;34.33;;;16.20;;
5458;SDS011;2752;49.992;8.422;2022-12-18T09:17:30;40.63;;;14.10;;
5458;SDS011;2752;49.992;8.422;2022-12-18T09:19:57;40.43;;;14.70;;
5458;SDS011;2752;49.992;8.422;2022-12-18T09:22:24;29.10;;;12.43;;
5458;SDS011;2752;49.992;8.422;2022-12-18T09:24:53;33.23;;;12.50;;
5458;SDS011;2752;49.992;8.422;2022-12-18T09:27:20;40.47;;;17.03;;
5458;SDS011;2752;49.992;8.422;2022-12-18T09:29:46;34.53;;;13.77;;
5458;SDS011;2752;49.992;8.422;2022-12-18T09:32:13;42.77;;;15.70;;
5458;SDS011;2752;49.992;8.422;2022-12-18T09:34:40;38.43;;;14.60;;
5458;SDS011;2752;49.992;8.422;2022-12-18T09:37:06;31.20;;;13.30;;
5458;SDS011;2752;49.992;8.422;2022-12-18T09:39:36;36.37;;;15.10;;
5458;SDS011;2752;49.992;8.422;2022-12-18T09:42:04;38.93;;;14.43;;
5458;SDS011;2752;49.992;8.422;2022-12-18T09:44:32;41.83;;;16.50;;
5458;SDS011;2752;49.992;8.422;2022-12-18T09:47:05;55.93;;;16.97;;
5458;SDS011;2752;49.992;8.422;2022-12-18T09:49:38;50.63;;;18.10;;
5458;SDS011;2752;49.992;8.422;2022-12-18T09:52:15;47.43;;;18.50;;
5458;SDS011;2752;49.992;8.422;2022-12-18T09:54:48;44.87;;;15.03;;
5458;SDS011;2752;49.992;8.422;2022-12-18T09:57:21;35.63;;;15.10;;
5458;SDS011;2752;49.992;8.422;2022-12-18T09:59:51;48.10;;;16.90;;
5458;SDS011;2752;49.992;8.422;2022-12-18T10:02:21;48.83;;;18.93;;
5458;SDS011;2752;49.992;8.422;2022-12-18T10:04:53;39.27;;;17.60;;
5458;SDS011;2752;49.992;8.422;2022-12-18T10:07:29;36.40;;;16.13;;
5458;SDS011;2752;49.992;8.422;2022-12-18T10:10:06;51.80;;;16.70;;
5458;SDS011;2752;49.992;8.422;2022-12-18T10:12:41;51.27;;;17.43;;
5458;SDS011;2752;49.992;8.422;2022-12-18T10:15:13;39.83;;;17.43;;
5458;SDS011;2752;49.992;8.422;2022-12-18T10:17:46;47.80;;;18.50;;
5458;SDS011;2752;49.992;8.422;2022-12-18T10:20:23;42.53;;;17.70;;
5458;SDS011;2752;49.992;8.422;2022-12-18T10:22:55;52.83;;;19.77;;
5458;SDS011;2752;49.992;8.422;2022-12-18T10:25:28;42.20;;;16.30;;
5458;SDS011;2752;49.992;8.422;2022-12-18T10:28:06;40.27;;;16.90;;
5458;SDS011;2752;49.992;8.422;2022-12-18T10:30:37;39.67;;;19.60;;
5458;SDS011;2752;49.992;8.422;2022-12-18T10:33:05;58.40;;;22.37;;
5458;SDS011;2752;49.992;8.422;2022-12-18T10:35:35;45.03;;;19.30;;
5458;SDS011;2752;49.992;8.422;2022-12-18T10:38:03;44.37;;;18.27;;
5458;SDS011;2752;49.992;8.422;2022-12-18T10:40:32;40.20;;;16.30;;
5458;SDS011;2752;49.992;8.422;2022-12-18T10:43:19;42.70;;;19.57;;
5458;SDS011;2752;49.992;8.422;2022-12-18T10:45:58;53.47;;;20.50;;
5458;SDS011;2752;49.992;8.422;2022-12-18T10:48:31;47.80;;;18.07;;
5458;SDS011;2752;49.992;8.422;2022-12-18T10:50:59;48.97;;;19.13;;
5458;SDS011;2752;49.992;8.422;2022-12-18T10:53:27;38.17;;;16.53;;
5458;SDS011;2752;49.992;8.422;2022-12-18T10:55:56;36.07;;;16.87;;
5458;SDS011;2752;49.992;8.422;2022-12-18T10:58:28;48.00;;;18.43;;
5458;SDS011;2752;49.992;8.422;2022-12-18T11:01:04;42.83;;;17.30;;
5458;SDS011;2752;49.992;8.422;2022-12-18T11:03:34;43.20;;;17.40;;
5458;SDS011;2752;49.992;8.422;2022-12-18T11:06:03;45.23;;;18.83;;
5458;SDS011;2752;49.992;8.422;2022-12-18T11:08:32;42.90;;;17.57;;
5458;SDS011;2752;49.992;8.422;2022-12-18T11:10:59;44.70;;;17.90;;
5458;SDS011;2752;49.992;8.422;2022-12-18T11:13:27;52.80;;;21.10;;
5458;SDS011;2752;49.992;8.422;2022-12-18T11:15:56;42.33;;;16.40;;
5458;SDS011;2752;49.992;8.422;2022-12-18T11:18:25;44.80;;;18.20;;
5458;SDS011;2752;49.992;8.422;2022-12-18T11:20:54;44.60;;;18.13;;
5458;SDS011;2752;49.992;8.422;2022-12-18T11:23:23;58.70;;;20.70;;
5458;SDS011;2752;49.992;8.422;2022-12-18T11:25:51;49.07;;;17.83;;
5458;SDS011;2752;49.992;8.422;2022-12-18T11:28:29;46.30;;;18.90;;
5458;SDS011;2752;49.992;8.422;2022-12-18T11:31:09;50.80;;;19.17;;
5458;SDS011;2752;49.992;8.422;2022-12-18T11:33:44;55.27;;;19.73;;
5458;SDS011;2752;49.992;8.422;2022-12-18T11:36:14;49.53;;;18.80;;
5458;SDS011;2752;49.992;8.422;2022-12-18T11:38:41;38.40;;;16.53;;
5458;SDS011;2752;49.992;8.422;2022-12-18T11:41:13;43.83;;;17.97;;
5458;SDS011;2752;49.992;8.422;2022-12-18T11:43:49;46.30;;;19.97;;
5458;SDS011;2752;49.992;8.422;2022-12-18T11:46:23;43.53;;;18.10;;
5458;SDS011;2752;49.992;8.422;2022-12-18T11:48:54;51.40;;;19.73;;
5458;SDS011;2752;49.992;8.422;2022-12-18T11:51:29;40.00;;;16.73;;
5458;SDS011;2752;49.992;8.422;2022-12-18T11:54:01;44.30;;;17.20;;
5458;SDS011;2752;49.992;8.422;2022-12-18T11:56:39;41.00;;;17.07;;
5458;SDS011;2752;49.992;8.422;2022-12-18T11:59:13;52.60;;;17.70;;
5458;SDS011;2752;49.992;8.422;2022-12-18T12:01:48;44.37;;;18.23;;
5458;SDS011;2752;49.992;8.422;2022-12-18T12:04:26;51.93;;;18.57;;
5458;SDS011;2752;49.992;8.422;2022-12-18T12:07:11;49.40;;;20.80;;
5458;SDS011;2752;49.992;8.422;2022-12-18T12:09:48;48.97;;;19.03;;
5458;SDS011;2752;49.992;8.422;2022-12-18T12:12:27;49.30;;;18.60;;
5458;SDS011;2752;49.992;8.422;2022-12-18T12:15:13;47.80;;;17.43;;
5458;SDS011;2752;49.992;8.422;2022-12-18T12:17:50;51.53;;;17.80;;
5458;SDS011;2752;49.992;8.422;2022-12-18T12:20:25;43.97;;;18.70;;
5458;SDS011;2752;49.992;8.422;2022-12-18T12:23:02;49.40;;;16.70;;
5458;SDS011;2752;49.992;8.422;2022-12-18T12:25:36;37.57;;;15.20;;
5458;SDS011;2752;49.992;8.422;2022-12-18T12:28:14;38.20;;;14.33;;
5458;SDS011;2752;49.992;8.422;2022-12-18T12:30:51;43.23;;;17.00;;
5458;SDS011;2752;49.992;8.422;2022-12-18T12:33:29;50.87;;;18.13;;
5458;SDS011;2752;49.992;8.422;2022-12-18T12:36:03;41.97;;;16.70;;
5458;SDS011;2752;49.992;8.422;2022-12-18T12:38:36;35.33;;;16.47;;
5458;SDS011;2752;49.992;8.422;2022-12-18T12:41:09;46.23;;;19.17;;
5458;SDS011;2752;49.992;8.422;2022-12-18T12:43:59;44.97;;;17.83;;
5458;SDS011;2752;49.992;8.422;2022-12-18T12:46:31;39.97;;;15.73;;
5458;SDS011;2752;49.992;8.422;2022-12-18T12:49:02;46.13;;;17.97;;
5458;SDS011;2752;49.992;8.422;2022-12-18T12:51:35;43.13;;;16.80;;
5458;SDS011;2752;49.992;8.422;2022-12-18T12:54:05;46.40;;;17.13;;
5458;SDS011;2752;49.992;8.422;2022-12-18T12:56:50;51.17;;;17.80;;
5458;SDS011;2752;49.992;8.422;2022-12-18T12:59:22;56.83;;;19.33;;
5458;SDS011;2752;49.992;8.422;2022-12-18T13:01:59;50.37;;;18.30;;
5458;SDS011;2752;49.992;8.422;2022-12-18T13:04:33;47.43;;;17.20;;
5458;SDS011;2752;49.992;8.422;2022-12-18T13:07:11;40.77;;;15.03;;
5458;SDS011;2752;49.992;8.422;2022-12-18T13:12:43;54.77;;;18.60;;
5458;SDS011;2752;49.992;8.422;2022-12-18T13:15:23;43.87;;;16.10;;
5458;SDS011;2752;49.992;8.422;2022-12-18T13:18:04;47.20;;;18.50;;
5458;SDS011;2752;49.992;8.422;2022-12-18T13:20:38;45.33;;;17.30;;
5458;SDS011;2752;49.992;8.422;2022-12-18T13:23:26;52.10;;;17.13;;
5458;SDS011;2752;49.992;8.422;2022-12-18T13:25:56;44.47;;;15.93;;
5458;SDS011;2752;49.992;8.422;2022-12-18T13:28:24;50.20;;;18.30;;
5458;SDS011;2752;49.992;8.422;2022-12-18T13:34:33;52.03;;;18.17;;
5458;SDS011;2752;49.992;8.422;2022-12-18T13:43:32;46.53;;;16.40;;
5458;SDS011;2752;49.992;8.422;2022-12-18T13:48:50;51.63;;;17.73;;
5458;SDS011;2752;49.992;8.422;2022-12-18T13:51:21;53.47;;;15.00;;
5458;SDS011;2752;49.992;8.422;2022-12-18T13:53:49;55.83;;;18.07;;
5458;SDS011;2752;49.992;8.422;2022-12-18T13:56:18;51.40;;;16.73;;
5458;SDS011;2752;49.992;8.422;2022-12-18T13:59:03;58.07;;;17.70;;
5458;SDS011;2752;49.992;8.422;2022-12-18T14:01:41;48.10;;;18.00;;
5458;SDS011;2752;49.992;8.422;2022-12-18T14:04:10;41.87;;;15.80;;
5458;SDS011;2752;49.992;8.422;2022-12-18T14:06:38;41.70;;;14.63;;
5458;SDS011;2752;49.992;8.422;2022-12-18T14:09:08;57.20;;;16.97;;
5458;SDS011;2752;49.992;8.422;2022-12-18T14:11:39;45.67;;;17.00;;
5458;SDS011;2752;49.992;8.422;2022-12-18T14:14:06;39.40;;;14.80;;
5458;SDS011;2752;49.992;8.422;2022-12-18T14:16:34;37.00;;;14.73;;
5458;SDS011;2752;49.992;8.422;2022-12-18T14:19:02;44.73;;;16.40;;
5458;SDS011;2752;49.992;8.422;2022-12-18T14:21:29;57.27;;;16.40;;
5458;SDS011;2752;49.992;8.422;2022-12-18T14:24:05;50.00;;;16.87;;
5458;SDS011;2752;49.992;8.422;2022-12-18T14:26:39;56.00;;;17.90;;
5458;SDS011;2752;49.992;8.422;2022-12-18T14:29:18;42.80;;;16.63;;
5458;SDS011;2752;49.992;8.422;2022-12-18T14:31:50;42.93;;;16.77;;
5458;SDS011;2752;49.992;8.422;2022-12-18T14:34:31;48.17;;;19.10;;
5458;SDS011;2752;49.992;8.422;2022-12-18T14:36:57;41.57;;;16.20;;
5458;SDS011;2752;49.992;8.422;2022-12-18T14:39:26;58.40;;;17.17;;
5458;SDS011;2752;49.992;8.422;2022-12-18T14:41:52;43.63;;;14.87;;
5458;SDS011;2752;49.992;8.422;2022-12-18T14:44:19;51.30;;;17.50;;
5458;SDS011;2752;49.992;8.422;2022-12-18T14:46:47;50.03;;;17.60;;
5458;SDS011;2752;49.992;8.422;2022-12-18T14:49:18;47.93;;;17.30;;
5458;SDS011;2752;49.992;8.422;2022-12-18T14:51:48;57.17;;;17.23;;
5458;SDS011;2752;49.992;8.422;2022-12-18T14:54:18;41.40;;;15.53;;
5458;SDS011;2752;49.992;8.422;2022-12-18T14:56:47;41.93;;;15.63;;
5458;SDS011;2752;49.992;8.422;2022-12-18T14:59:24;43.17;;;17.00;;
5458;SDS011;2752;49.992;8.422;2022-12-18T15:01:56;51.20;;;16.23;;
5458;SDS011;2752;49.992;8.422;2022-12-18T15:04:26;45.50;;;16.17;;
5458;SDS011;2752;49.992;8.422;2022-12-18T15:07:05;48.93;;;16.87;;
5458;SDS011;2752;49.992;8.422;2022-12-18T15:09:39;45.30;;;16.83;;
5458;SDS011;2752;49.992;8.422;2022-12-18T15:12:16;51.57;;;19.00;;
5458;SDS011;2752;49.992;8.422;2022-12-18T15:14:50;43.13;;;15.20;;
5458;SDS011;2752;49.992;8.422;2022-12-18T15:17:17;43.60;;;15.10;;
5458;SDS011;2752;49.992;8.422;2022-12-18T15:19:46;42.60;;;15.27;;
5458;SDS011;2752;49.992;8.422;2022-12-18T15:22:18;37.87;;;15.00;;
5458;SDS011;2752;49.992;8.422;2022-12-18T15:24:47;48.63;;;17.00;;